sensor_id;sensor_type;location;lat;lon;timestamp;P1;durP1;ratioP1;P2;durP2;ratioP2
73296;SDS011;61524;50.938;11.396;2023-12-07T00:00:48;13.57;;;7.33;;
73296;SDS011;61524;50.938;11.396;2023-12-07T00:03:14;14.70;;;7.63;;
73296;SDS011;61524;50.938;11.396;2023-12-07T00:05:40;13.80;;;8.05;;
73296;SDS011;61524;50.938;11.396;2023-12-07T00:08:05;14.68;;;8.38;;
73296;SDS011;61524;50.938;11.396;2023-12-07T00:10:31;15.43;;;7.68;;
73296;SDS011;61524;50.938;11.396;2023-12-07T00:12:56;13.93;;;8.10;;
73296;SDS011;61524;50.938;11.396;2023-12-07T00:15:21;15.27;;;8.18;;
73296;SDS011;61524;50.938;11.396;2023-12-07T00:17:47;14.07;;;8.57;;
73296;SDS011;61524;50.938;11.396;2023-12-07T00:20:12;15.17;;;8.00;;
73296;SDS011;61524;50.938;11.396;2023-12-07T00:22:37;15.30;;;7.67;;
73296;SDS011;61524;50.938;11.396;2023-12-07T00:25:02;15.40;;;7.77;;
73296;SDS011;61524;50.938;11.396;2023-12-07T00:27:28;17.13;;;9.55;;
73296;SDS011;61524;50.938;11.396;2023-12-07T00:29:53;16.57;;;9.03;;
73296;SDS011;61524;50.938;11.396;2023-12-07T00:32:18;16.93;;;8.93;;
73296;SDS011;61524;50.938;11.396;2023-12-07T00:34:44;17.77;;;9.55;;
73296;SDS011;61524;50.938;11.396;2023-12-07T00:37:09;20.23;;;10.20;;
73296;SDS011;61524;50.938;11.396;2023-12-07T00:39:35;18.10;;;9.48;;
73296;SDS011;61524;50.938;11.396;2023-12-07T00:42:01;18.20;;;9.75;;
73296;SDS011;61524;50.938;11.396;2023-12-07T00:44:26;13.57;;;8.80;;
73296;SDS011;61524;50.938;11.396;2023-12-07T00:46:51;14.53;;;8.50;;
73296;SDS011;61524;50.938;11.396;2023-12-07T00:49:17;15.47;;;8.73;;
73296;SDS011;61524;50.938;11.396;2023-12-07T00:51:42;17.00;;;8.60;;
73296;SDS011;61524;50.938;11.396;2023-12-07T00:54:08;16.75;;;9.65;;
73296;SDS011;61524;50.938;11.396;2023-12-07T00:56:33;16.67;;;9.53;;
73296;SDS011;61524;50.938;11.396;2023-12-07T00:58:59;15.05;;;8.65;;
73296;SDS011;61524;50.938;11.396;2023-12-07T01:01:24;23.47;;;10.63;;
73296;SDS011;61524;50.938;11.396;2023-12-07T01:03:49;15.13;;;8.57;;
73296;SDS011;61524;50.938;11.396;2023-12-07T01:06:15;16.00;;;8.97;;
73296;SDS011;61524;50.938;11.396;2023-12-07T01:08:41;14.88;;;7.90;;
73296;SDS011;61524;50.938;11.396;2023-12-07T01:11:07;14.53;;;7.70;;
73296;SDS011;61524;50.938;11.396;2023-12-07T01:13:32;17.80;;;9.73;;
73296;SDS011;61524;50.938;11.396;2023-12-07T01:15:57;16.53;;;8.00;;
73296;SDS011;61524;50.938;11.396;2023-12-07T01:18:22;16.07;;;8.30;;
73296;SDS011;61524;50.938;11.396;2023-12-07T01:20:48;16.47;;;8.57;;
73296;SDS011;61524;50.938;11.396;2023-12-07T01:23:13;18.50;;;9.33;;
73296;SDS011;61524;50.938;11.396;2023-12-07T01:25:39;15.90;;;8.88;;
73296;SDS011;61524;50.938;11.396;2023-12-07T01:28:04;17.93;;;8.90;;
73296;SDS011;61524;50.938;11.396;2023-12-07T01:30:29;18.15;;;9.40;;
73296;SDS011;61524;50.938;11.396;2023-12-07T01:32:55;15.23;;;8.70;;
73296;SDS011;61524;50.938;11.396;2023-12-07T01:35:20;18.45;;;9.60;;
73296;SDS011;61524;50.938;11.396;2023-12-07T01:37:45;16.80;;;9.50;;
73296;SDS011;61524;50.938;11.396;2023-12-07T01:40:11;18.40;;;9.27;;
73296;SDS011;61524;50.938;11.396;2023-12-07T01:42:36;15.47;;;9.03;;
73296;SDS011;61524;50.938;11.396;2023-12-07T01:45:03;13.57;;;8.05;;
73296;SDS011;61524;50.938;11.396;2023-12-07T01:47:28;16.10;;;8.50;;
73296;SDS011;61524;50.938;11.396;2023-12-07T01:49:53;18.05;;;9.25;;
73296;SDS011;61524;50.938;11.396;2023-12-07T01:52:19;19.25;;;9.30;;
73296;SDS011;61524;50.938;11.396;2023-12-07T01:54:47;17.88;;;8.15;;
73296;SDS011;61524;50.938;11.396;2023-12-07T01:57:12;15.90;;;7.85;;
73296;SDS011;61524;50.938;11.396;2023-12-07T01:59:37;15.48;;;7.95;;
73296;SDS011;61524;50.938;11.396;2023-12-07T02:02:03;15.40;;;8.57;;
73296;SDS011;61524;50.938;11.396;2023-12-07T02:04:28;18.17;;;8.20;;
73296;SDS011;61524;50.938;11.396;2023-12-07T02:06:56;15.90;;;7.78;;
73296;SDS011;61524;50.938;11.396;2023-12-07T02:09:22;16.20;;;8.55;;
73296;SDS011;61524;50.938;11.396;2023-12-07T02:11:47;13.40;;;7.25;;
73296;SDS011;61524;50.938;11.396;2023-12-07T02:14:12;15.07;;;7.50;;
73296;SDS011;61524;50.938;11.396;2023-12-07T02:16:52;13.88;;;6.93;;
73296;SDS011;61524;50.938;11.396;2023-12-07T02:22:05;14.98;;;7.55;;
73296;SDS011;61524;50.938;11.396;2023-12-07T02:24:33;18.90;;;8.07;;
73296;SDS011;61524;50.938;11.396;2023-12-07T02:26:58;14.82;;;8.52;;
73296;SDS011;61524;50.938;11.396;2023-12-07T02:29:24;13.87;;;8.90;;
73296;SDS011;61524;50.938;11.396;2023-12-07T02:31:49;17.23;;;7.80;;
73296;SDS011;61524;50.938;11.396;2023-12-07T02:34:14;17.87;;;8.23;;
73296;SDS011;61524;50.938;11.396;2023-12-07T02:36:39;17.80;;;9.68;;
73296;SDS011;61524;50.938;11.396;2023-12-07T02:39:06;14.73;;;8.68;;
73296;SDS011;61524;50.938;11.396;2023-12-07T02:41:32;14.55;;;8.27;;
73296;SDS011;61524;50.938;11.396;2023-12-07T02:43:58;16.48;;;9.07;;
73296;SDS011;61524;50.938;11.396;2023-12-07T02:46:24;16.85;;;8.35;;
73296;SDS011;61524;50.938;11.396;2023-12-07T02:48:50;15.95;;;7.85;;
73296;SDS011;61524;50.938;11.396;2023-12-07T02:51:15;14.75;;;8.02;;
73296;SDS011;61524;50.938;11.396;2023-12-07T02:53:40;15.93;;;7.67;;
73296;SDS011;61524;50.938;11.396;2023-12-07T02:56:06;12.47;;;7.23;;
73296;SDS011;61524;50.938;11.396;2023-12-07T02:58:31;13.68;;;7.55;;
73296;SDS011;61524;50.938;11.396;2023-12-07T03:00:56;15.00;;;7.47;;
73296;SDS011;61524;50.938;11.396;2023-12-07T03:03:22;13.50;;;6.97;;
73296;SDS011;61524;50.938;11.396;2023-12-07T03:05:47;13.43;;;7.40;;
73296;SDS011;61524;50.938;11.396;2023-12-07T03:08:12;14.00;;;7.23;;
73296;SDS011;61524;50.938;11.396;2023-12-07T03:10:37;14.47;;;8.10;;
73296;SDS011;61524;50.938;11.396;2023-12-07T03:13:03;14.37;;;8.00;;
73296;SDS011;61524;50.938;11.396;2023-12-07T03:15:28;12.95;;;7.65;;
73296;SDS011;61524;50.938;11.396;2023-12-07T03:17:53;15.13;;;8.80;;
73296;SDS011;61524;50.938;11.396;2023-12-07T03:20:18;16.10;;;7.33;;
73296;SDS011;61524;50.938;11.396;2023-12-07T03:22:44;15.80;;;9.05;;
73296;SDS011;61524;50.938;11.396;2023-12-07T03:25:09;14.55;;;8.25;;
73296;SDS011;61524;50.938;11.396;2023-12-07T03:27:35;15.40;;;8.57;;
73296;SDS011;61524;50.938;11.396;2023-12-07T03:30:00;18.85;;;8.07;;
73296;SDS011;61524;50.938;11.396;2023-12-07T03:32:26;13.80;;;7.93;;
73296;SDS011;61524;50.938;11.396;2023-12-07T03:34:51;16.00;;;7.43;;
73296;SDS011;61524;50.938;11.396;2023-12-07T03:37:16;12.57;;;7.33;;
73296;SDS011;61524;50.938;11.396;2023-12-07T03:39:41;14.82;;;7.07;;
73296;SDS011;61524;50.938;11.396;2023-12-07T03:42:07;14.30;;;6.57;;
73296;SDS011;61524;50.938;11.396;2023-12-07T03:44:32;12.27;;;7.10;;
73296;SDS011;61524;50.938;11.396;2023-12-07T03:46:57;14.87;;;7.13;;
73296;SDS011;61524;50.938;11.396;2023-12-07T03:49:22;11.73;;;6.33;;
73296;SDS011;61524;50.938;11.396;2023-12-07T03:51:48;12.63;;;6.77;;
73296;SDS011;61524;50.938;11.396;2023-12-07T03:54:13;13.30;;;6.00;;
73296;SDS011;61524;50.938;11.396;2023-12-07T03:56:38;11.40;;;6.32;;
73296;SDS011;61524;50.938;11.396;2023-12-07T03:59:05;13.35;;;7.10;;
73296;SDS011;61524;50.938;11.396;2023-12-07T04:01:31;12.48;;;7.15;;
73296;SDS011;61524;50.938;11.396;2023-12-07T04:03:57;12.93;;;6.45;;
73296;SDS011;61524;50.938;11.396;2023-12-07T04:06:25;13.50;;;6.38;;
73296;SDS011;61524;50.938;11.396;2023-12-07T04:08:51;13.38;;;6.88;;
73296;SDS011;61524;50.938;11.396;2023-12-07T04:11:17;10.90;;;6.32;;
73296;SDS011;61524;50.938;11.396;2023-12-07T04:13:43;11.23;;;6.60;;
73296;SDS011;61524;50.938;11.396;2023-12-07T04:16:08;13.60;;;6.18;;
73296;SDS011;61524;50.938;11.396;2023-12-07T04:18:34;14.38;;;7.30;;
73296;SDS011;61524;50.938;11.396;2023-12-07T04:20:59;12.07;;;6.70;;
73296;SDS011;61524;50.938;11.396;2023-12-07T04:23:24;12.17;;;7.07;;
73296;SDS011;61524;50.938;11.396;2023-12-07T04:25:50;12.68;;;6.75;;
73296;SDS011;61524;50.938;11.396;2023-12-07T04:28:15;12.27;;;7.17;;
73296;SDS011;61524;50.938;11.396;2023-12-07T04:30:40;12.10;;;6.93;;
73296;SDS011;61524;50.938;11.396;2023-12-07T04:33:05;15.63;;;7.17;;
73296;SDS011;61524;50.938;11.396;2023-12-07T04:35:31;14.63;;;8.23;;
73296;SDS011;61524;50.938;11.396;2023-12-07T04:37:57;14.55;;;7.28;;
73296;SDS011;61524;50.938;11.396;2023-12-07T04:40:22;11.40;;;6.82;;
73296;SDS011;61524;50.938;11.396;2023-12-07T04:42:49;12.25;;;7.35;;
73296;SDS011;61524;50.938;11.396;2023-12-07T04:45:14;14.83;;;7.37;;
73296;SDS011;61524;50.938;11.396;2023-12-07T04:47:39;13.07;;;6.80;;
73296;SDS011;61524;50.938;11.396;2023-12-07T04:50:05;14.13;;;7.57;;
73296;SDS011;61524;50.938;11.396;2023-12-07T04:52:30;13.60;;;7.68;;
73296;SDS011;61524;50.938;11.396;2023-12-07T04:54:55;15.53;;;7.80;;
73296;SDS011;61524;50.938;11.396;2023-12-07T04:57:21;13.23;;;7.67;;
73296;SDS011;61524;50.938;11.396;2023-12-07T04:59:46;15.60;;;8.60;;
73296;SDS011;61524;50.938;11.396;2023-12-07T05:02:15;14.20;;;8.18;;
73296;SDS011;61524;50.938;11.396;2023-12-07T05:04:40;13.05;;;7.28;;
73296;SDS011;61524;50.938;11.396;2023-12-07T05:07:05;13.90;;;8.10;;
73296;SDS011;61524;50.938;11.396;2023-12-07T05:09:30;16.27;;;8.43;;
73296;SDS011;61524;50.938;11.396;2023-12-07T05:11:56;13.80;;;7.53;;
73296;SDS011;61524;50.938;11.396;2023-12-07T05:14:21;18.08;;;9.30;;
73296;SDS011;61524;50.938;11.396;2023-12-07T05:16:47;15.55;;;8.02;;
73296;SDS011;61524;50.938;11.396;2023-12-07T05:19:13;16.80;;;7.97;;
73296;SDS011;61524;50.938;11.396;2023-12-07T05:21:38;16.10;;;8.07;;
73296;SDS011;61524;50.938;11.396;2023-12-07T05:24:04;14.45;;;8.02;;
73296;SDS011;61524;50.938;11.396;2023-12-07T05:26:29;14.55;;;8.27;;
73296;SDS011;61524;50.938;11.396;2023-12-07T05:28:57;13.88;;;7.90;;
73296;SDS011;61524;50.938;11.396;2023-12-07T05:31:24;16.65;;;9.15;;
73296;SDS011;61524;50.938;11.396;2023-12-07T05:33:51;17.25;;;9.18;;
73296;SDS011;61524;50.938;11.396;2023-12-07T05:36:16;23.57;;;9.70;;
73296;SDS011;61524;50.938;11.396;2023-12-07T05:38:41;15.02;;;7.90;;
73296;SDS011;61524;50.938;11.396;2023-12-07T05:41:07;17.23;;;9.00;;
73296;SDS011;61524;50.938;11.396;2023-12-07T05:43:32;19.87;;;9.37;;
73296;SDS011;61524;50.938;11.396;2023-12-07T05:45:58;15.55;;;7.88;;
73296;SDS011;61524;50.938;11.396;2023-12-07T05:48:24;15.80;;;9.38;;
73296;SDS011;61524;50.938;11.396;2023-12-07T05:50:49;15.73;;;8.63;;
73296;SDS011;61524;50.938;11.396;2023-12-07T05:53:14;20.10;;;9.73;;
73296;SDS011;61524;50.938;11.396;2023-12-07T05:55:39;20.50;;;9.67;;
73296;SDS011;61524;50.938;11.396;2023-12-07T05:58:05;16.95;;;9.10;;
73296;SDS011;61524;50.938;11.396;2023-12-07T06:00:30;16.15;;;9.55;;
73296;SDS011;61524;50.938;11.396;2023-12-07T06:02:56;16.80;;;9.32;;
73296;SDS011;61524;50.938;11.396;2023-12-07T06:05:21;17.23;;;9.18;;
73296;SDS011;61524;50.938;11.396;2023-12-07T06:07:47;15.23;;;9.07;;
73296;SDS011;61524;50.938;11.396;2023-12-07T06:10:12;15.48;;;8.98;;
73296;SDS011;61524;50.938;11.396;2023-12-07T06:12:37;15.33;;;9.00;;
73296;SDS011;61524;50.938;11.396;2023-12-07T06:15:03;14.70;;;8.80;;
73296;SDS011;61524;50.938;11.396;2023-12-07T06:17:28;15.95;;;8.52;;
73296;SDS011;61524;50.938;11.396;2023-12-07T06:19:54;14.87;;;8.30;;
73296;SDS011;61524;50.938;11.396;2023-12-07T06:22:19;17.97;;;9.27;;
73296;SDS011;61524;50.938;11.396;2023-12-07T06:24:44;17.15;;;8.15;;
73296;SDS011;61524;50.938;11.396;2023-12-07T06:27:10;16.90;;;8.43;;
73296;SDS011;61524;50.938;11.396;2023-12-07T06:29:35;17.60;;;8.40;;
73296;SDS011;61524;50.938;11.396;2023-12-07T06:32:00;15.57;;;8.85;;
73296;SDS011;61524;50.938;11.396;2023-12-07T06:34:26;17.83;;;9.40;;
73296;SDS011;61524;50.938;11.396;2023-12-07T06:36:53;19.73;;;10.73;;
73296;SDS011;61524;50.938;11.396;2023-12-07T06:39:18;19.25;;;9.73;;
73296;SDS011;61524;50.938;11.396;2023-12-07T06:41:43;18.88;;;8.95;;
73296;SDS011;61524;50.938;11.396;2023-12-07T06:44:09;16.70;;;9.40;;
73296;SDS011;61524;50.938;11.396;2023-12-07T06:46:34;15.80;;;8.57;;
73296;SDS011;61524;50.938;11.396;2023-12-07T06:49:00;14.93;;;9.00;;
73296;SDS011;61524;50.938;11.396;2023-12-07T06:51:25;20.67;;;10.82;;
73296;SDS011;61524;50.938;11.396;2023-12-07T06:53:50;24.80;;;12.40;;
73296;SDS011;61524;50.938;11.396;2023-12-07T06:56:16;25.00;;;13.57;;
73296;SDS011;61524;50.938;11.396;2023-12-07T06:58:41;24.92;;;12.73;;
73296;SDS011;61524;50.938;11.396;2023-12-07T07:01:07;25.50;;;12.32;;
73296;SDS011;61524;50.938;11.396;2023-12-07T07:03:32;17.87;;;10.97;;
73296;SDS011;61524;50.938;11.396;2023-12-07T07:05:58;17.90;;;10.37;;
73296;SDS011;61524;50.938;11.396;2023-12-07T07:08:24;20.02;;;10.55;;
73296;SDS011;61524;50.938;11.396;2023-12-07T07:10:50;20.38;;;10.95;;
73296;SDS011;61524;50.938;11.396;2023-12-07T07:13:15;23.63;;;10.57;;
73296;SDS011;61524;50.938;11.396;2023-12-07T07:15:42;19.08;;;11.13;;
73296;SDS011;61524;50.938;11.396;2023-12-07T07:18:07;19.05;;;9.70;;
73296;SDS011;61524;50.938;11.396;2023-12-07T07:20:33;18.10;;;9.60;;
73296;SDS011;61524;50.938;11.396;2023-12-07T07:22:58;15.40;;;8.25;;
73296;SDS011;61524;50.938;11.396;2023-12-07T07:25:24;16.67;;;9.40;;
73296;SDS011;61524;50.938;11.396;2023-12-07T07:27:49;19.00;;;9.77;;
73296;SDS011;61524;50.938;11.396;2023-12-07T07:30:14;17.80;;;8.93;;
73296;SDS011;61524;50.938;11.396;2023-12-07T07:32:40;15.77;;;8.70;;
73296;SDS011;61524;50.938;11.396;2023-12-07T07:35:05;17.30;;;9.10;;
73296;SDS011;61524;50.938;11.396;2023-12-07T07:37:30;18.65;;;10.25;;
73296;SDS011;61524;50.938;11.396;2023-12-07T07:39:56;20.70;;;10.00;;
73296;SDS011;61524;50.938;11.396;2023-12-07T07:42:21;19.93;;;11.80;;
73296;SDS011;61524;50.938;11.396;2023-12-07T07:44:46;20.27;;;10.70;;
73296;SDS011;61524;50.938;11.396;2023-12-07T07:47:11;18.57;;;9.60;;
73296;SDS011;61524;50.938;11.396;2023-12-07T07:49:37;21.38;;;10.20;;
73296;SDS011;61524;50.938;11.396;2023-12-07T07:52:02;19.93;;;10.60;;
73296;SDS011;61524;50.938;11.396;2023-12-07T07:54:27;18.60;;;9.40;;
73296;SDS011;61524;50.938;11.396;2023-12-07T07:56:53;15.93;;;8.63;;
73296;SDS011;61524;50.938;11.396;2023-12-07T07:59:18;22.10;;;10.52;;
73296;SDS011;61524;50.938;11.396;2023-12-07T08:01:45;24.35;;;10.70;;
73296;SDS011;61524;50.938;11.396;2023-12-07T08:04:12;22.23;;;11.80;;
73296;SDS011;61524;50.938;11.396;2023-12-07T08:06:37;22.53;;;10.33;;
73296;SDS011;61524;50.938;11.396;2023-12-07T08:09:02;20.30;;;10.33;;
73296;SDS011;61524;50.938;11.396;2023-12-07T08:11:28;18.75;;;9.88;;
73296;SDS011;61524;50.938;11.396;2023-12-07T08:13:54;18.95;;;10.27;;
73296;SDS011;61524;50.938;11.396;2023-12-07T08:16:19;19.63;;;10.70;;
73296;SDS011;61524;50.938;11.396;2023-12-07T08:18:44;19.87;;;9.53;;
73296;SDS011;61524;50.938;11.396;2023-12-07T08:21:18;16.15;;;8.80;;
73296;SDS011;61524;50.938;11.396;2023-12-07T08:23:43;14.90;;;9.10;;
73296;SDS011;61524;50.938;11.396;2023-12-07T08:26:09;16.73;;;8.37;;
73296;SDS011;61524;50.938;11.396;2023-12-07T08:28:35;18.13;;;8.88;;
73296;SDS011;61524;50.938;11.396;2023-12-07T08:31:00;15.53;;;8.37;;
73296;SDS011;61524;50.938;11.396;2023-12-07T08:33:25;18.23;;;8.47;;
73296;SDS011;61524;50.938;11.396;2023-12-07T08:35:50;18.25;;;8.70;;
73296;SDS011;61524;50.938;11.396;2023-12-07T08:38:20;13.77;;;8.02;;
73296;SDS011;61524;50.938;11.396;2023-12-07T08:40:46;17.42;;;8.73;;
73296;SDS011;61524;50.938;11.396;2023-12-07T08:43:12;14.57;;;8.03;;
73296;SDS011;61524;50.938;11.396;2023-12-07T08:45:37;15.27;;;9.37;;
73296;SDS011;61524;50.938;11.396;2023-12-07T08:48:03;15.70;;;8.57;;
73296;SDS011;61524;50.938;11.396;2023-12-07T08:50:29;15.90;;;9.07;;
73296;SDS011;61524;50.938;11.396;2023-12-07T08:52:54;16.02;;;9.02;;
73296;SDS011;61524;50.938;11.396;2023-12-07T08:55:20;15.77;;;9.02;;
73296;SDS011;61524;50.938;11.396;2023-12-07T08:57:45;14.73;;;8.27;;
73296;SDS011;61524;50.938;11.396;2023-12-07T09:00:11;17.13;;;8.88;;
73296;SDS011;61524;50.938;11.396;2023-12-07T09:02:38;14.25;;;7.60;;
73296;SDS011;61524;50.938;11.396;2023-12-07T09:05:03;14.47;;;7.53;;
73296;SDS011;61524;50.938;11.396;2023-12-07T09:07:28;14.00;;;7.57;;
73296;SDS011;61524;50.938;11.396;2023-12-07T09:09:54;15.13;;;8.43;;
73296;SDS011;61524;50.938;11.396;2023-12-07T09:12:19;12.10;;;7.53;;
73296;SDS011;61524;50.938;11.396;2023-12-07T09:14:44;13.33;;;8.40;;
73296;SDS011;61524;50.938;11.396;2023-12-07T09:17:09;13.50;;;7.30;;
73296;SDS011;61524;50.938;11.396;2023-12-07T09:19:35;13.23;;;7.73;;
73296;SDS011;61524;50.938;11.396;2023-12-07T09:22:00;13.10;;;8.13;;
73296;SDS011;61524;50.938;11.396;2023-12-07T09:24:25;14.73;;;8.40;;
73296;SDS011;61524;50.938;11.396;2023-12-07T09:26:51;14.45;;;7.80;;
73296;SDS011;61524;50.938;11.396;2023-12-07T09:29:17;12.90;;;8.18;;
73296;SDS011;61524;50.938;11.396;2023-12-07T09:31:42;14.67;;;7.93;;
73296;SDS011;61524;50.938;11.396;2023-12-07T09:34:07;16.00;;;8.40;;
73296;SDS011;61524;50.938;11.396;2023-12-07T09:36:33;15.07;;;8.50;;
73296;SDS011;61524;50.938;11.396;2023-12-07T09:38:59;15.63;;;8.73;;
73296;SDS011;61524;50.938;11.396;2023-12-07T09:41:24;16.00;;;9.50;;
73296;SDS011;61524;50.938;11.396;2023-12-07T09:43:51;15.18;;;8.40;;
73296;SDS011;61524;50.938;11.396;2023-12-07T09:46:16;16.60;;;8.97;;
73296;SDS011;61524;50.938;11.396;2023-12-07T09:48:42;13.88;;;8.00;;
73296;SDS011;61524;50.938;11.396;2023-12-07T09:51:09;14.23;;;8.70;;
73296;SDS011;61524;50.938;11.396;2023-12-07T09:53:36;17.95;;;8.32;;
73296;SDS011;61524;50.938;11.396;2023-12-07T09:56:03;13.32;;;8.15;;
73296;SDS011;61524;50.938;11.396;2023-12-07T09:58:28;15.65;;;7.82;;
73296;SDS011;61524;50.938;11.396;2023-12-07T10:00:53;14.03;;;8.13;;
73296;SDS011;61524;50.938;11.396;2023-12-07T10:03:21;15.15;;;8.60;;
73296;SDS011;61524;50.938;11.396;2023-12-07T10:05:53;14.45;;;7.80;;
73296;SDS011;61524;50.938;11.396;2023-12-07T10:08:30;12.90;;;7.90;;
73296;SDS011;61524;50.938;11.396;2023-12-07T10:11:05;12.38;;;7.05;;
73296;SDS011;61524;50.938;11.396;2023-12-07T10:13:31;16.13;;;8.23;;
73296;SDS011;61524;50.938;11.396;2023-12-07T10:16:06;13.30;;;7.90;;
73296;SDS011;61524;50.938;11.396;2023-12-07T10:18:31;14.32;;;8.32;;
73296;SDS011;61524;50.938;11.396;2023-12-07T10:20:57;12.55;;;7.03;;
73296;SDS011;61524;50.938;11.396;2023-12-07T10:23:22;12.48;;;7.25;;
73296;SDS011;61524;50.938;11.396;2023-12-07T10:25:50;12.65;;;7.28;;
73296;SDS011;61524;50.938;11.396;2023-12-07T10:28:15;15.00;;;7.40;;
73296;SDS011;61524;50.938;11.396;2023-12-07T10:30:42;14.20;;;7.28;;
73296;SDS011;61524;50.938;11.396;2023-12-07T10:33:09;11.40;;;7.07;;
73296;SDS011;61524;50.938;11.396;2023-12-07T10:35:41;15.07;;;7.70;;
73296;SDS011;61524;50.938;11.396;2023-12-07T10:38:06;15.18;;;7.60;;
73296;SDS011;61524;50.938;11.396;2023-12-07T10:40:32;13.30;;;7.93;;
73296;SDS011;61524;50.938;11.396;2023-12-07T10:42:57;16.47;;;8.37;;
73296;SDS011;61524;50.938;11.396;2023-12-07T10:45:25;15.50;;;8.10;;
73296;SDS011;61524;50.938;11.396;2023-12-07T10:47:53;13.38;;;8.07;;
73296;SDS011;61524;50.938;11.396;2023-12-07T10:50:23;12.77;;;6.55;;
73296;SDS011;61524;50.938;11.396;2023-12-07T10:52:51;12.50;;;7.47;;
73296;SDS011;61524;50.938;11.396;2023-12-07T10:55:28;12.40;;;6.57;;
73296;SDS011;61524;50.938;11.396;2023-12-07T10:57:55;12.32;;;7.00;;
73296;SDS011;61524;50.938;11.396;2023-12-07T11:00:20;15.45;;;7.57;;
73296;SDS011;61524;50.938;11.396;2023-12-07T11:02:49;13.38;;;7.22;;
73296;SDS011;61524;50.938;11.396;2023-12-07T11:05:17;13.75;;;7.43;;
73296;SDS011;61524;50.938;11.396;2023-12-07T11:08:16;12.70;;;7.13;;
73296;SDS011;61524;50.938;11.396;2023-12-07T11:13:13;10.47;;;6.23;;
73296;SDS011;61524;50.938;11.396;2023-12-07T11:15:41;15.55;;;6.47;;
73296;SDS011;61524;50.938;11.396;2023-12-07T11:18:06;10.23;;;6.03;;
73296;SDS011;61524;50.938;11.396;2023-12-07T11:20:39;12.00;;;6.68;;
73296;SDS011;61524;50.938;11.396;2023-12-07T11:23:06;12.23;;;7.07;;
73296;SDS011;61524;50.938;11.396;2023-12-07T11:25:32;13.77;;;6.82;;
73296;SDS011;61524;50.938;11.396;2023-12-07T11:28:01;11.83;;;6.80;;
73296;SDS011;61524;50.938;11.396;2023-12-07T11:30:27;12.93;;;7.25;;
73296;SDS011;61524;50.938;11.396;2023-12-07T11:32:52;12.35;;;7.43;;
73296;SDS011;61524;50.938;11.396;2023-12-07T11:35:17;10.00;;;6.47;;
73296;SDS011;61524;50.938;11.396;2023-12-07T11:38:02;14.43;;;6.57;;
73296;SDS011;61524;50.938;11.396;2023-12-07T11:40:35;10.15;;;5.88;;
73296;SDS011;61524;50.938;11.396;2023-12-07T11:43:01;12.70;;;7.05;;
73296;SDS011;61524;50.938;11.396;2023-12-07T11:45:36;13.90;;;7.80;;
73296;SDS011;61524;50.938;11.396;2023-12-07T11:48:11;13.73;;;7.35;;
73296;SDS011;61524;50.938;11.396;2023-12-07T11:50:52;15.30;;;7.43;;
73296;SDS011;61524;50.938;11.396;2023-12-07T11:53:20;10.73;;;6.35;;
73296;SDS011;61524;50.938;11.396;2023-12-07T11:55:46;12.35;;;7.68;;
73296;SDS011;61524;50.938;11.396;2023-12-07T11:58:12;10.57;;;6.10;;
73296;SDS011;61524;50.938;11.396;2023-12-07T12:00:37;11.18;;;6.20;;
73296;SDS011;61524;50.938;11.396;2023-12-07T12:03:03;11.00;;;6.27;;
73296;SDS011;61524;50.938;11.396;2023-12-07T12:05:28;13.83;;;6.33;;
73296;SDS011;61524;50.938;11.396;2023-12-07T12:07:54;13.60;;;6.75;;
73296;SDS011;61524;50.938;11.396;2023-12-07T12:10:20;11.07;;;6.63;;
73296;SDS011;61524;50.938;11.396;2023-12-07T12:12:47;11.35;;;6.65;;
73296;SDS011;61524;50.938;11.396;2023-12-07T12:15:13;15.23;;;6.70;;
73296;SDS011;61524;50.938;11.396;2023-12-07T12:17:38;11.10;;;7.77;;
73296;SDS011;61524;50.938;11.396;2023-12-07T12:20:03;11.27;;;6.63;;
73296;SDS011;61524;50.938;11.396;2023-12-07T12:22:29;11.63;;;6.35;;
73296;SDS011;61524;50.938;11.396;2023-12-07T12:24:54;14.17;;;6.97;;
73296;SDS011;61524;50.938;11.396;2023-12-07T12:27:20;12.47;;;6.17;;
73296;SDS011;61524;50.938;11.396;2023-12-07T12:29:45;13.00;;;6.05;;
73296;SDS011;61524;50.938;11.396;2023-12-07T12:32:11;12.05;;;6.97;;
73296;SDS011;61524;50.938;11.396;2023-12-07T12:34:37;10.93;;;5.93;;
73296;SDS011;61524;50.938;11.396;2023-12-07T12:37:02;12.90;;;5.97;;
73296;SDS011;61524;50.938;11.396;2023-12-07T12:39:30;11.85;;;6.50;;
73296;SDS011;61524;50.938;11.396;2023-12-07T12:41:57;11.90;;;6.32;;
73296;SDS011;61524;50.938;11.396;2023-12-07T12:44:23;12.10;;;6.38;;
73296;SDS011;61524;50.938;11.396;2023-12-07T12:46:49;11.32;;;5.97;;
73296;SDS011;61524;50.938;11.396;2023-12-07T12:49:14;17.80;;;6.47;;
73296;SDS011;61524;50.938;11.396;2023-12-07T12:51:41;12.15;;;6.57;;
73296;SDS011;61524;50.938;11.396;2023-12-07T12:54:08;10.98;;;5.68;;
73296;SDS011;61524;50.938;11.396;2023-12-07T12:56:34;12.30;;;5.70;;
73296;SDS011;61524;50.938;11.396;2023-12-07T12:58:59;10.32;;;5.03;;
73296;SDS011;61524;50.938;11.396;2023-12-07T13:01:24;12.13;;;5.72;;
73296;SDS011;61524;50.938;11.396;2023-12-07T13:03:50;11.05;;;5.22;;
73296;SDS011;61524;50.938;11.396;2023-12-07T13:06:15;12.40;;;5.63;;
73296;SDS011;61524;50.938;11.396;2023-12-07T13:08:42;9.27;;;5.13;;
73296;SDS011;61524;50.938;11.396;2023-12-07T13:11:08;7.95;;;4.78;;
73296;SDS011;61524;50.938;11.396;2023-12-07T13:13:34;10.60;;;5.87;;
73296;SDS011;61524;50.938;11.396;2023-12-07T13:15:59;9.55;;;5.95;;
73296;SDS011;61524;50.938;11.396;2023-12-07T13:18:24;15.53;;;6.57;;
73296;SDS011;61524;50.938;11.396;2023-12-07T13:20:49;13.47;;;6.83;;
73296;SDS011;61524;50.938;11.396;2023-12-07T13:23:15;9.63;;;6.30;;
73296;SDS011;61524;50.938;11.396;2023-12-07T13:25:40;10.97;;;6.50;;
73296;SDS011;61524;50.938;11.396;2023-12-07T13:28:06;11.20;;;6.18;;
73296;SDS011;61524;50.938;11.396;2023-12-07T13:30:31;12.77;;;6.15;;
73296;SDS011;61524;50.938;11.396;2023-12-07T13:33:00;9.77;;;5.45;;
73296;SDS011;61524;50.938;11.396;2023-12-07T13:35:25;9.82;;;5.55;;
73296;SDS011;61524;50.938;11.396;2023-12-07T13:37:50;8.00;;;5.00;;
73296;SDS011;61524;50.938;11.396;2023-12-07T13:40:16;10.30;;;4.50;;
73296;SDS011;61524;50.938;11.396;2023-12-07T13:42:42;9.10;;;4.90;;
73296;SDS011;61524;50.938;11.396;2023-12-07T13:45:07;8.77;;;4.75;;
73296;SDS011;61524;50.938;11.396;2023-12-07T13:47:33;9.40;;;5.15;;
73296;SDS011;61524;50.938;11.396;2023-12-07T13:50:01;9.48;;;5.18;;
73296;SDS011;61524;50.938;11.396;2023-12-07T13:54:54;8.47;;;5.03;;
73296;SDS011;61524;50.938;11.396;2023-12-07T13:57:19;9.55;;;4.88;;
73296;SDS011;61524;50.938;11.396;2023-12-07T13:59:45;8.55;;;5.10;;
73296;SDS011;61524;50.938;11.396;2023-12-07T14:02:10;10.18;;;5.28;;
73296;SDS011;61524;50.938;11.396;2023-12-07T14:04:36;9.48;;;5.43;;
73296;SDS011;61524;50.938;11.396;2023-12-07T14:07:08;9.43;;;4.88;;
73296;SDS011;61524;50.938;11.396;2023-12-07T14:09:35;9.45;;;4.18;;
73296;SDS011;61524;50.938;11.396;2023-12-07T14:12:00;7.57;;;4.45;;
73296;SDS011;61524;50.938;11.396;2023-12-07T14:14:26;9.85;;;4.63;;
73296;SDS011;61524;50.938;11.396;2023-12-07T14:16:51;9.23;;;4.63;;
73296;SDS011;61524;50.938;11.396;2023-12-07T14:19:16;10.93;;;3.67;;
73296;SDS011;61524;50.938;11.396;2023-12-07T14:21:41;6.20;;;3.63;;